sensor_id;sensor_type;location;lat;lon;timestamp;P1;durP1;ratioP1;P2;durP2;ratioP2
75139;SDS011;63714;55.812;37.658;2023-04-03T00:00:01;9.02;;;5.38;;
75139;SDS011;63714;55.812;37.658;2023-04-03T00:02:29;9.75;;;5.45;;
75139;SDS011;63714;55.812;37.658;2023-04-03T00:04:54;9.35;;;5.47;;
75139;SDS011;63714;55.812;37.658;2023-04-03T00:07:20;10.27;;;6.20;;
75139;SDS011;63714;55.812;37.658;2023-04-03T00:09:46;8.43;;;6.00;;
75139;SDS011;63714;55.812;37.658;2023-04-03T00:12:11;11.90;;;5.85;;
75139;SDS011;63714;55.812;37.658;2023-04-03T00:14:37;8.73;;;4.80;;
75139;SDS011;63714;55.812;37.658;2023-04-03T00:17:02;9.93;;;5.22;;
75139;SDS011;63714;55.812;37.658;2023-04-03T00:19:28;7.28;;;4.68;;
75139;SDS011;63714;55.812;37.658;2023-04-03T00:21:53;8.30;;;4.93;;
75139;SDS011;63714;55.812;37.658;2023-04-03T00:24:19;7.68;;;5.72;;
75139;SDS011;63714;55.812;37.658;2023-04-03T00:26:44;7.35;;;4.65;;
75139;SDS011;63714;55.812;37.658;2023-04-03T00:29:10;9.52;;;5.57;;
75139;SDS011;63714;55.812;37.658;2023-04-03T00:31:35;10.65;;;5.65;;
75139;SDS011;63714;55.812;37.658;2023-04-03T00:34:01;8.57;;;5.60;;
75139;SDS011;63714;55.812;37.658;2023-04-03T00:36:26;14.02;;;5.93;;
75139;SDS011;63714;55.812;37.658;2023-04-03T00:38:52;10.38;;;6.00;;
75139;SDS011;63714;55.812;37.658;2023-04-03T00:41:18;9.52;;;5.93;;
75139;SDS011;63714;55.812;37.658;2023-04-03T00:43:43;13.95;;;6.07;;
75139;SDS011;63714;55.812;37.658;2023-04-03T00:46:09;7.78;;;5.40;;
75139;SDS011;63714;55.812;37.658;2023-04-03T00:48:39;10.40;;;5.88;;
75139;SDS011;63714;55.812;37.658;2023-04-03T00:51:09;11.40;;;6.90;;
75139;SDS011;63714;55.812;37.658;2023-04-03T00:53:40;11.90;;;6.90;;
75139;SDS011;63714;55.812;37.658;2023-04-03T00:56:10;12.05;;;7.38;;
75139;SDS011;63714;55.812;37.658;2023-04-03T00:58:41;11.07;;;6.30;;
75139;SDS011;63714;55.812;37.658;2023-04-03T01:01:12;10.80;;;6.80;;
75139;SDS011;63714;55.812;37.658;2023-04-03T01:03:44;14.68;;;6.70;;
75139;SDS011;63714;55.812;37.658;2023-04-03T01:06:09;12.77;;;7.78;;
75139;SDS011;63714;55.812;37.658;2023-04-03T01:08:35;11.73;;;6.85;;
75139;SDS011;63714;55.812;37.658;2023-04-03T01:11:00;12.82;;;6.90;;
75139;SDS011;63714;55.812;37.658;2023-04-03T01:13:28;12.50;;;7.40;;
75139;SDS011;63714;55.812;37.658;2023-04-03T01:15:55;12.50;;;7.95;;
75139;SDS011;63714;55.812;37.658;2023-04-03T01:18:22;12.55;;;7.75;;
75139;SDS011;63714;55.812;37.658;2023-04-03T01:20:56;12.75;;;10.15;;
75139;SDS011;63714;55.812;37.658;2023-04-03T01:23:46;13.65;;;6.93;;
75139;SDS011;63714;55.812;37.658;2023-04-03T01:26:14;15.77;;;12.02;;
75139;SDS011;63714;55.812;37.658;2023-04-03T01:28:40;14.10;;;10.98;;
75139;SDS011;63714;55.812;37.658;2023-04-03T01:33:35;10.70;;;8.07;;
75139;SDS011;63714;55.812;37.658;2023-04-03T01:36:01;11.95;;;7.07;;
75139;SDS011;63714;55.812;37.658;2023-04-03T01:38:27;11.48;;;7.57;;
75139;SDS011;63714;55.812;37.658;2023-04-03T01:40:52;9.18;;;6.80;;
75139;SDS011;63714;55.812;37.658;2023-04-03T01:43:18;12.25;;;6.50;;
75139;SDS011;63714;55.812;37.658;2023-04-03T01:45:43;8.13;;;6.30;;
75139;SDS011;63714;55.812;37.658;2023-04-03T01:48:09;10.43;;;6.45;;
75139;SDS011;63714;55.812;37.658;2023-04-03T01:50:35;9.95;;;6.10;;
75139;SDS011;63714;55.812;37.658;2023-04-03T01:53:00;10.13;;;6.13;;
75139;SDS011;63714;55.812;37.658;2023-04-03T01:55:26;12.00;;;7.18;;
75139;SDS011;63714;55.812;37.658;2023-04-03T01:57:51;11.60;;;6.45;;
75139;SDS011;63714;55.812;37.658;2023-04-03T02:00:17;9.40;;;6.70;;
75139;SDS011;63714;55.812;37.658;2023-04-03T02:02:43;8.32;;;6.15;;
75139;SDS011;63714;55.812;37.658;2023-04-03T02:05:08;7.95;;;5.88;;
75139;SDS011;63714;55.812;37.658;2023-04-03T02:07:34;10.48;;;6.13;;
75139;SDS011;63714;55.812;37.658;2023-04-03T02:10:00;9.95;;;6.25;;
75139;SDS011;63714;55.812;37.658;2023-04-03T02:12:25;9.85;;;6.60;;
75139;SDS011;63714;55.812;37.658;2023-04-03T02:14:51;12.68;;;7.43;;
75139;SDS011;63714;55.812;37.658;2023-04-03T02:17:16;9.98;;;6.18;;
75139;SDS011;63714;55.812;37.658;2023-04-03T02:19:42;11.93;;;6.63;;
75139;SDS011;63714;55.812;37.658;2023-04-03T02:22:08;10.00;;;6.97;;
75139;SDS011;63714;55.812;37.658;2023-04-03T02:24:33;9.25;;;6.95;;
75139;SDS011;63714;55.812;37.658;2023-04-03T02:26:59;9.98;;;6.20;;
75139;SDS011;63714;55.812;37.658;2023-04-03T02:29:24;10.32;;;6.63;;
75139;SDS011;63714;55.812;37.658;2023-04-03T02:31:50;11.93;;;7.18;;
75139;SDS011;63714;55.812;37.658;2023-04-03T02:34:16;10.43;;;6.57;;
75139;SDS011;63714;55.812;37.658;2023-04-03T02:36:42;12.30;;;6.45;;
75139;SDS011;63714;55.812;37.658;2023-04-03T02:39:07;15.00;;;7.45;;
75139;SDS011;63714;55.812;37.658;2023-04-03T02:41:33;11.20;;;6.80;;
75139;SDS011;63714;55.812;37.658;2023-04-03T02:44:01;11.88;;;7.10;;
75139;SDS011;63714;55.812;37.658;2023-04-03T02:46:27;14.77;;;6.95;;
75139;SDS011;63714;55.812;37.658;2023-04-03T02:48:52;17.08;;;8.07;;
75139;SDS011;63714;55.812;37.658;2023-04-03T02:51:18;13.68;;;7.43;;
75139;SDS011;63714;55.812;37.658;2023-04-03T02:53:43;11.73;;;7.00;;
75139;SDS011;63714;55.812;37.658;2023-04-03T02:56:09;12.38;;;7.00;;
75139;SDS011;63714;55.812;37.658;2023-04-03T02:58:35;13.15;;;7.90;;
75139;SDS011;63714;55.812;37.658;2023-04-03T03:01:01;13.68;;;7.18;;
75139;SDS011;63714;55.812;37.658;2023-04-03T03:03:27;13.15;;;7.72;;
75139;SDS011;63714;55.812;37.658;2023-04-03T03:06:05;10.38;;;6.60;;
75139;SDS011;63714;55.812;37.658;2023-04-03T03:08:32;14.73;;;7.90;;
75139;SDS011;63714;55.812;37.658;2023-04-03T03:10:59;16.33;;;8.18;;
75139;SDS011;63714;55.812;37.658;2023-04-03T03:13:25;11.57;;;6.53;;
75139;SDS011;63714;55.812;37.658;2023-04-03T03:15:50;13.60;;;6.95;;
75139;SDS011;63714;55.812;37.658;2023-04-03T03:18:16;12.18;;;7.63;;
75139;SDS011;63714;55.812;37.658;2023-04-03T03:20:42;13.60;;;7.53;;
75139;SDS011;63714;55.812;37.658;2023-04-03T03:23:08;13.70;;;7.45;;
75139;SDS011;63714;55.812;37.658;2023-04-03T03:25:37;14.43;;;7.68;;
75139;SDS011;63714;55.812;37.658;2023-04-03T03:28:04;15.13;;;7.78;;
75139;SDS011;63714;55.812;37.658;2023-04-03T03:30:29;13.48;;;8.38;;
75139;SDS011;63714;55.812;37.658;2023-04-03T03:32:55;12.40;;;7.63;;
75139;SDS011;63714;55.812;37.658;2023-04-03T03:35:21;15.60;;;8.23;;
75139;SDS011;63714;55.812;37.658;2023-04-03T03:37:46;13.65;;;7.40;;
75139;SDS011;63714;55.812;37.658;2023-04-03T03:40:12;13.15;;;8.75;;
75139;SDS011;63714;55.812;37.658;2023-04-03T03:42:38;15.85;;;8.68;;
75139;SDS011;63714;55.812;37.658;2023-04-03T03:45:04;14.05;;;8.25;;
75139;SDS011;63714;55.812;37.658;2023-04-03T03:47:30;16.92;;;9.15;;
75139;SDS011;63714;55.812;37.658;2023-04-03T03:49:56;12.65;;;8.32;;
75139;SDS011;63714;55.812;37.658;2023-04-03T03:52:22;15.63;;;8.43;;
75139;SDS011;63714;55.812;37.658;2023-04-03T03:54:47;14.63;;;8.55;;
75139;SDS011;63714;55.812;37.658;2023-04-03T03:57:13;13.15;;;8.10;;
75139;SDS011;63714;55.812;37.658;2023-04-03T03:59:40;14.40;;;8.15;;
75139;SDS011;63714;55.812;37.658;2023-04-03T04:02:07;15.05;;;8.38;;
75139;SDS011;63714;55.812;37.658;2023-04-03T04:04:32;15.85;;;9.23;;
75139;SDS011;63714;55.812;37.658;2023-04-03T04:06:58;15.75;;;9.43;;
75139;SDS011;63714;55.812;37.658;2023-04-03T04:09:25;15.90;;;8.48;;
75139;SDS011;63714;55.812;37.658;2023-04-03T04:11:52;13.93;;;9.27;;
75139;SDS011;63714;55.812;37.658;2023-04-03T04:14:17;13.63;;;9.13;;
75139;SDS011;63714;55.812;37.658;2023-04-03T04:16:45;16.05;;;9.77;;
75139;SDS011;63714;55.812;37.658;2023-04-03T04:19:12;14.25;;;8.48;;
75139;SDS011;63714;55.812;37.658;2023-04-03T04:21:37;17.08;;;9.85;;
75139;SDS011;63714;55.812;37.658;2023-04-03T04:24:04;14.82;;;9.55;;
75139;SDS011;63714;55.812;37.658;2023-04-03T04:26:30;19.80;;;11.48;;
75139;SDS011;63714;55.812;37.658;2023-04-03T04:28:56;16.88;;;9.30;;
75139;SDS011;63714;55.812;37.658;2023-04-03T04:31:22;16.50;;;9.57;;
75139;SDS011;63714;55.812;37.658;2023-04-03T04:33:49;19.35;;;9.43;;
75139;SDS011;63714;55.812;37.658;2023-04-03T04:36:15;16.23;;;9.80;;
75139;SDS011;63714;55.812;37.658;2023-04-03T04:38:40;23.50;;;11.48;;
75139;SDS011;63714;55.812;37.658;2023-04-03T04:41:06;15.80;;;9.77;;
75139;SDS011;63714;55.812;37.658;2023-04-03T04:43:32;14.52;;;9.60;;
75139;SDS011;63714;55.812;37.658;2023-04-03T04:46:05;16.02;;;9.85;;
75139;SDS011;63714;55.812;37.658;2023-04-03T04:48:33;18.42;;;10.55;;
75139;SDS011;63714;55.812;37.658;2023-04-03T04:50:59;16.85;;;9.75;;
75139;SDS011;63714;55.812;37.658;2023-04-03T04:53:25;18.73;;;10.20;;
75139;SDS011;63714;55.812;37.658;2023-04-03T04:55:51;16.67;;;9.68;;
75139;SDS011;63714;55.812;37.658;2023-04-03T04:58:17;17.25;;;10.43;;
75139;SDS011;63714;55.812;37.658;2023-04-03T05:00:43;17.33;;;10.27;;
75139;SDS011;63714;55.812;37.658;2023-04-03T05:03:09;13.95;;;9.05;;
75139;SDS011;63714;55.812;37.658;2023-04-03T05:05:34;15.02;;;9.68;;
75139;SDS011;63714;55.812;37.658;2023-04-03T05:08:00;16.80;;;10.43;;
75139;SDS011;63714;55.812;37.658;2023-04-03T05:10:27;15.55;;;9.73;;
75139;SDS011;63714;55.812;37.658;2023-04-03T05:12:53;14.90;;;9.82;;
75139;SDS011;63714;55.812;37.658;2023-04-03T05:15:18;17.17;;;10.75;;
75139;SDS011;63714;55.812;37.658;2023-04-03T05:17:45;22.30;;;10.00;;
75139;SDS011;63714;55.812;37.658;2023-04-03T05:20:11;20.95;;;10.85;;
75139;SDS011;63714;55.812;37.658;2023-04-03T05:22:37;16.38;;;10.38;;
75139;SDS011;63714;55.812;37.658;2023-04-03T05:25:03;14.93;;;10.23;;
75139;SDS011;63714;55.812;37.658;2023-04-03T05:27:29;16.10;;;10.25;;
75139;SDS011;63714;55.812;37.658;2023-04-03T05:29:55;15.68;;;9.55;;
75139;SDS011;63714;55.812;37.658;2023-04-03T05:32:24;18.27;;;10.38;;
75139;SDS011;63714;55.812;37.658;2023-04-03T05:34:52;17.92;;;9.90;;
75139;SDS011;63714;55.812;37.658;2023-04-03T05:37:17;17.25;;;9.40;;
75139;SDS011;63714;55.812;37.658;2023-04-03T05:39:43;16.40;;;9.98;;
75139;SDS011;63714;55.812;37.658;2023-04-03T05:42:08;17.85;;;9.63;;
75139;SDS011;63714;55.812;37.658;2023-04-03T05:44:34;18.33;;;10.05;;
75139;SDS011;63714;55.812;37.658;2023-04-03T05:47:00;18.45;;;10.50;;
75139;SDS011;63714;55.812;37.658;2023-04-03T05:49:25;19.05;;;10.35;;
75139;SDS011;63714;55.812;37.658;2023-04-03T05:51:51;15.55;;;10.05;;
75139;SDS011;63714;55.812;37.658;2023-04-03T05:54:29;17.05;;;10.05;;
75139;SDS011;63714;55.812;37.658;2023-04-03T05:56:55;18.55;;;9.52;;
75139;SDS011;63714;55.812;37.658;2023-04-03T05:59:21;15.00;;;10.40;;
75139;SDS011;63714;55.812;37.658;2023-04-03T06:01:47;17.00;;;10.48;;
75139;SDS011;63714;55.812;37.658;2023-04-03T06:04:13;16.95;;;11.18;;
75139;SDS011;63714;55.812;37.658;2023-04-03T06:06:46;16.55;;;10.02;;
75139;SDS011;63714;55.812;37.658;2023-04-03T06:09:13;14.02;;;9.55;;
75139;SDS011;63714;55.812;37.658;2023-04-03T06:11:39;15.50;;;9.45;;
75139;SDS011;63714;55.812;37.658;2023-04-03T06:14:05;14.88;;;9.38;;
75139;SDS011;63714;55.812;37.658;2023-04-03T06:16:31;17.83;;;10.90;;
75139;SDS011;63714;55.812;37.658;2023-04-03T06:18:57;17.38;;;10.25;;
75139;SDS011;63714;55.812;37.658;2023-04-03T06:21:22;18.75;;;10.35;;
75139;SDS011;63714;55.812;37.658;2023-04-03T06:23:48;13.88;;;9.25;;
75139;SDS011;63714;55.812;37.658;2023-04-03T06:26:14;15.88;;;10.40;;
75139;SDS011;63714;55.812;37.658;2023-04-03T06:28:39;16.15;;;10.10;;
75139;SDS011;63714;55.812;37.658;2023-04-03T06:31:05;18.30;;;10.18;;
75139;SDS011;63714;55.812;37.658;2023-04-03T06:33:30;18.98;;;10.88;;
75139;SDS011;63714;55.812;37.658;2023-04-03T06:35:57;16.52;;;10.55;;
75139;SDS011;63714;55.812;37.658;2023-04-03T06:38:23;17.65;;;10.43;;
75139;SDS011;63714;55.812;37.658;2023-04-03T06:40:49;23.25;;;11.13;;
75139;SDS011;63714;55.812;37.658;2023-04-03T06:43:15;22.35;;;11.57;;
75139;SDS011;63714;55.812;37.658;2023-04-03T06:45:40;19.90;;;10.25;;
75139;SDS011;63714;55.812;37.658;2023-04-03T06:48:06;24.88;;;11.55;;
75139;SDS011;63714;55.812;37.658;2023-04-03T06:50:31;20.02;;;10.20;;
75139;SDS011;63714;55.812;37.658;2023-04-03T06:52:57;18.60;;;10.32;;
75139;SDS011;63714;55.812;37.658;2023-04-03T06:55:23;16.00;;;10.57;;
75139;SDS011;63714;55.812;37.658;2023-04-03T06:57:49;18.60;;;10.98;;
75139;SDS011;63714;55.812;37.658;2023-04-03T07:00:15;18.88;;;10.05;;
75139;SDS011;63714;55.812;37.658;2023-04-03T07:02:41;19.65;;;10.23;;
75139;SDS011;63714;55.812;37.658;2023-04-03T07:05:07;17.00;;;10.90;;
75139;SDS011;63714;55.812;37.658;2023-04-03T07:07:34;18.52;;;9.77;;
75139;SDS011;63714;55.812;37.658;2023-04-03T07:10:00;18.65;;;10.57;;
75139;SDS011;63714;55.812;37.658;2023-04-03T07:12:26;16.08;;;11.13;;
75139;SDS011;63714;55.812;37.658;2023-04-03T07:14:51;16.50;;;9.60;;
75139;SDS011;63714;55.812;37.658;2023-04-03T07:17:17;16.10;;;10.52;;
75139;SDS011;63714;55.812;37.658;2023-04-03T07:19:42;17.48;;;10.90;;
75139;SDS011;63714;55.812;37.658;2023-04-03T07:22:08;18.33;;;10.75;;
75139;SDS011;63714;55.812;37.658;2023-04-03T07:24:34;14.65;;;10.55;;
75139;SDS011;63714;55.812;37.658;2023-04-03T07:27:00;17.58;;;11.15;;
75139;SDS011;63714;55.812;37.658;2023-04-03T07:29:26;16.88;;;10.48;;
75139;SDS011;63714;55.812;37.658;2023-04-03T07:31:51;19.38;;;9.80;;
75139;SDS011;63714;55.812;37.658;2023-04-03T07:34:17;17.95;;;10.70;;
75139;SDS011;63714;55.812;37.658;2023-04-03T07:36:43;17.20;;;8.80;;
75139;SDS011;63714;55.812;37.658;2023-04-03T07:39:08;15.98;;;10.05;;
75139;SDS011;63714;55.812;37.658;2023-04-03T07:41:34;14.73;;;10.02;;
75139;SDS011;63714;55.812;37.658;2023-04-03T07:43:59;14.40;;;9.05;;
75139;SDS011;63714;55.812;37.658;2023-04-03T07:46:25;15.32;;;9.52;;
75139;SDS011;63714;55.812;37.658;2023-04-03T07:48:51;19.83;;;10.20;;
75139;SDS011;63714;55.812;37.658;2023-04-03T07:51:16;17.48;;;10.18;;
75139;SDS011;63714;55.812;37.658;2023-04-03T07:53:42;17.42;;;10.43;;
75139;SDS011;63714;55.812;37.658;2023-04-03T07:56:08;15.70;;;9.68;;
75139;SDS011;63714;55.812;37.658;2023-04-03T07:58:34;20.63;;;10.70;;
75139;SDS011;63714;55.812;37.658;2023-04-03T08:01:00;15.55;;;10.25;;
75139;SDS011;63714;55.812;37.658;2023-04-03T08:03:25;20.77;;;9.18;;
75139;SDS011;63714;55.812;37.658;2023-04-03T08:05:51;19.42;;;9.00;;
75139;SDS011;63714;55.812;37.658;2023-04-03T08:08:22;20.40;;;8.70;;
75139;SDS011;63714;55.812;37.658;2023-04-03T08:10:51;17.33;;;8.82;;
75139;SDS011;63714;55.812;37.658;2023-04-03T08:13:18;14.88;;;9.10;;
75139;SDS011;63714;55.812;37.658;2023-04-03T08:15:44;14.13;;;8.05;;
75139;SDS011;63714;55.812;37.658;2023-04-03T08:18:10;10.75;;;8.00;;
75139;SDS011;63714;55.812;37.658;2023-04-03T08:20:37;15.15;;;8.40;;
75139;SDS011;63714;55.812;37.658;2023-04-03T08:23:03;15.25;;;9.93;;
75139;SDS011;63714;55.812;37.658;2023-04-03T08:25:29;13.68;;;8.35;;
75139;SDS011;63714;55.812;37.658;2023-04-03T08:27:55;16.08;;;9.13;;
75139;SDS011;63714;55.812;37.658;2023-04-03T08:30:20;18.80;;;9.30;;
75139;SDS011;63714;55.812;37.658;2023-04-03T08:32:46;22.10;;;9.85;;
75139;SDS011;63714;55.812;37.658;2023-04-03T08:35:12;16.88;;;9.25;;
75139;SDS011;63714;55.812;37.658;2023-04-03T08:37:38;14.30;;;9.80;;
75139;SDS011;63714;55.812;37.658;2023-04-03T08:40:05;18.50;;;9.90;;
75139;SDS011;63714;55.812;37.658;2023-04-03T08:42:38;19.15;;;9.85;;
75139;SDS011;63714;55.812;37.658;2023-04-03T08:45:19;14.85;;;9.95;;
75139;SDS011;63714;55.812;37.658;2023-04-03T08:48:05;21.02;;;9.85;;
75139;SDS011;63714;55.812;37.658;2023-04-03T08:50:45;21.38;;;9.85;;
75139;SDS011;63714;55.812;37.658;2023-04-03T08:53:27;18.02;;;9.45;;
75139;SDS011;63714;55.812;37.658;2023-04-03T08:55:57;16.08;;;9.68;;
75139;SDS011;63714;55.812;37.658;2023-04-03T08:58:25;14.63;;;9.32;;
75139;SDS011;63714;55.812;37.658;2023-04-03T09:01:01;17.63;;;9.68;;
75139;SDS011;63714;55.812;37.658;2023-04-03T09:03:33;15.48;;;10.18;;
75139;SDS011;63714;55.812;37.658;2023-04-03T09:06:05;22.52;;;10.57;;
75139;SDS011;63714;55.812;37.658;2023-04-03T09:16:14;19.25;;;10.65;;
75139;SDS011;63714;55.812;37.658;2023-04-03T09:21:41;16.65;;;10.02;;
75139;SDS011;63714;55.812;37.658;2023-04-03T09:24:10;19.23;;;10.10;;
75139;SDS011;63714;55.812;37.658;2023-04-03T09:26:43;18.25;;;10.20;;
75139;SDS011;63714;55.812;37.658;2023-04-03T09:29:24;20.05;;;10.52;;
75139;SDS011;63714;55.812;37.658;2023-04-03T09:31:52;17.02;;;9.55;;
75139;SDS011;63714;55.812;37.658;2023-04-03T09:36:56;24.17;;;10.43;;
75139;SDS011;63714;55.812;37.658;2023-04-03T09:39:27;16.38;;;9.00;;
75139;SDS011;63714;55.812;37.658;2023-04-03T09:41:55;16.27;;;8.68;;
75139;SDS011;63714;55.812;37.658;2023-04-03T09:46:58;13.60;;;8.32;;
75139;SDS011;63714;55.812;37.658;2023-04-03T09:49:24;17.50;;;9.35;;
75139;SDS011;63714;55.812;37.658;2023-04-03T09:51:51;14.20;;;9.32;;
75139;SDS011;63714;55.812;37.658;2023-04-03T09:54:38;17.05;;;9.55;;
75139;SDS011;63714;55.812;37.658;2023-04-03T09:57:07;20.15;;;9.25;;
75139;SDS011;63714;55.812;37.658;2023-04-03T09:59:36;17.20;;;9.10;;
75139;SDS011;63714;55.812;37.658;2023-04-03T10:04:56;16.20;;;10.55;;
75139;SDS011;63714;55.812;37.658;2023-04-03T10:07:30;20.25;;;10.73;;
75139;SDS011;63714;55.812;37.658;2023-04-03T10:10:00;15.40;;;10.77;;
75139;SDS011;63714;55.812;37.658;2023-04-03T10:12:29;19.23;;;9.30;;
75139;SDS011;63714;55.812;37.658;2023-04-03T10:15:01;17.20;;;9.00;;
75139;SDS011;63714;55.812;37.658;2023-04-03T10:20:15;18.23;;;9.77;;
75139;SDS011;63714;55.812;37.658;2023-04-03T10:25:38;18.42;;;9.30;;
75139;SDS011;63714;55.812;37.658;2023-04-03T10:31:07;16.55;;;9.02;;
75139;SDS011;63714;55.812;37.658;2023-04-03T10:53:55;14.13;;;7.55;;
75139;SDS011;63714;55.812;37.658;2023-04-03T10:59:18;14.00;;;8.25;;
75139;SDS011;63714;55.812;37.658;2023-04-03T11:01:58;12.40;;;7.65;;
75139;SDS011;63714;55.812;37.658;2023-04-03T11:04:27;17.75;;;7.80;;
75139;SDS011;63714;55.812;37.658;2023-04-03T11:07:01;14.82;;;8.57;;
75139;SDS011;63714;55.812;37.658;2023-04-03T11:09:37;13.98;;;7.55;;
75139;SDS011;63714;55.812;37.658;2023-04-03T11:12:11;14.70;;;7.00;;
75139;SDS011;63714;55.812;37.658;2023-04-03T11:14:42;12.73;;;7.40;;
75139;SDS011;63714;55.812;37.658;2023-04-03T11:17:42;15.02;;;7.00;;
75139;SDS011;63714;55.812;37.658;2023-04-03T11:23:13;13.18;;;6.65;;
75139;SDS011;63714;55.812;37.658;2023-04-03T11:25:46;11.70;;;6.47;;
75139;SDS011;63714;55.812;37.658;2023-04-03T11:28:17;14.35;;;7.82;;
75139;SDS011;63714;55.812;37.658;2023-04-03T11:36:40;10.38;;;6.40;;
75139;SDS011;63714;55.812;37.658;2023-04-03T11:41:49;15.18;;;6.53;;
75139;SDS011;63714;55.812;37.658;2023-04-03T11:44:34;12.48;;;6.78;;
75139;SDS011;63714;55.812;37.658;2023-04-03T11:47:04;13.63;;;6.88;;
75139;SDS011;63714;55.812;37.658;2023-04-03T12:05:51;15.25;;;6.50;;
75139;SDS011;63714;55.812;37.658;2023-04-03T12:08:29;9.07;;;6.43;;
75139;SDS011;63714;55.812;37.658;2023-04-03T12:19:03;16.15;;;7.13;;
75139;SDS011;63714;55.812;37.658;2023-04-03T12:24:22;11.48;;;6.45;;
75139;SDS011;63714;55.812;37.658;2023-04-03T12:37:09;10.77;;;7.32;;
75139;SDS011;63714;55.812;37.658;2023-04-03T12:42:55;19.42;;;7.80;;
75139;SDS011;63714;55.812;37.658;2023-04-03T12:45:25;10.40;;;6.15;;
75139;SDS011;63714;55.812;37.658;2023-04-03T12:47:52;10.93;;;6.13;;
75139;SDS011;63714;55.812;37.658;2023-04-03T12:55:30;11.35;;;5.95;;
75139;SDS011;63714;55.812;37.658;2023-04-03T12:57:55;10.65;;;5.60;;
75139;SDS011;63714;55.812;37.658;2023-04-03T13:02:53;12.65;;;5.18;;
75139;SDS011;63714;55.812;37.658;2023-04-03T13:05:19;10.77;;;5.22;;
75139;SDS011;63714;55.812;37.658;2023-04-03T13:07:51;7.43;;;5.28;;
75139;SDS011;63714;55.812;37.658;2023-04-03T13:10:22;14.00;;;5.97;;
75139;SDS011;63714;55.812;37.658;2023-04-03T13:12:54;9.50;;;5.13;;
75139;SDS011;63714;55.812;37.658;2023-04-03T13:15:23;8.20;;;4.82;;
75139;SDS011;63714;55.812;37.658;2023-04-03T13:17:54;11.60;;;5.28;;
75139;SDS011;63714;55.812;37.658;2023-04-03T13:20:26;11.50;;;5.15;;
75139;SDS011;63714;55.812;37.658;2023-04-03T13:23:01;12.20;;;4.93;;
75139;SDS011;63714;55.812;37.658;2023-04-03T13:25:34;10.15;;;5.07;;
75139;SDS011;63714;55.812;37.658;2023-04-03T13:28:04;8.10;;;4.55;;
75139;SDS011;63714;55.812;37.658;2023-04-03T13:30:33;12.80;;;4.95;;
75139;SDS011;63714;55.812;37.658;2023-04-03T13:33:02;11.55;;;5.05;;
75139;SDS011;63714;55.812;37.658;2023-04-03T13:35:37;11.95;;;4.85;;
75139;SDS011;63714;55.812;37.658;2023-04-03T13:43:25;11.57;;;6.07;;
75139;SDS011;63714;55.812;37.658;2023-04-03T13:45:54;8.65;;;5.15;;
75139;SDS011;63714;55.812;37.658;2023-04-03T13:48:21;10.32;;;5.13;;
75139;SDS011;63714;55.812;37.658;2023-04-03T13:50:56;11.85;;;5.75;;
75139;SDS011;63714;55.812;37.658;2023-04-03T13:53:25;9.13;;;6.03;;
75139;SDS011;63714;55.812;37.658;2023-04-03T13:58:24;10.57;;;5.40;;
75139;SDS011;63714;55.812;37.658;2023-04-03T14:00:53;11.20;;;5.70;;
75139;SDS011;63714;55.812;37.658;2023-04-03T14:03:32;11.15;;;5.93;;
75139;SDS011;63714;55.812;37.658;2023-04-03T14:06:04;9.93;;;5.50;;
75139;SDS011;63714;55.812;37.658;2023-04-03T14:08:31;9.80;;;5.90;;
75139;SDS011;63714;55.812;37.658;2023-04-03T14:10:57;9.07;;;5.35;;
75139;SDS011;63714;55.812;37.658;2023-04-03T14:13:23;10.75;;;6.22;;
75139;SDS011;63714;55.812;37.658;2023-04-03T14:15:49;10.05;;;6.53;;
75139;SDS011;63714;55.812;37.658;2023-04-03T14:18:18;10.38;;;6.15;;
75139;SDS011;63714;55.812;37.658;2023-04-03T14:20:45;14.10;;;6.25;;
75139;SDS011;63714;55.812;37.658;2023-04-03T14:23:12;10.30;;;6.05;;
75139;SDS011;63714;55.812;37.658;2023-04-03T14:25:38;10.25;;;5.90;;
75139;SDS011;63714;55.812;37.658;2023-04-03T14:28:14;10.55;;;6.38;;
75139;SDS011;63714;55.812;37.658;2023-04-03T14:30:45;14.30;;;6.60;;
75139;SDS011;63714;55.812;37.658;2023-04-03T14:33:14;13.50;;;6.75;;
75139;SDS011;63714;55.812;37.658;2023-04-03T14:35:41;11.13;;;6.47;;
75139;SDS011;63714;55.812;37.658;2023-04-03T14:38:21;9.68;;;6.15;;
75139;SDS011;63714;55.812;37.658;2023-04-03T14:40:50;12.07;;;7.93;;
75139;SDS011;63714;55.812;37.658;2023-04-03T14:43:17;13.23;;;7.25;;
75139;SDS011;63714;55.812;37.658;2023-04-03T14:45:43;12.63;;;6.75;;
75139;SDS011;63714;55.812;37.658;2023-04-03T14:48:16;10.00;;;6.32;;
75139;SDS011;63714;55.812;37.658;2023-04-03T14:50:44;13.98;;;6.82;;
75139;SDS011;63714;55.812;37.658;2023-04-03T14:53:10;13.57;;;6.32;;
75139;SDS011;63714;55.812;37.658;2023-04-03T14:55:37;9.00;;;6.05;;
75139;SDS011;63714;55.812;37.658;2023-04-03T14:58:03;10.88;;;5.93;;
75139;SDS011;63714;55.812;37.658;2023-04-03T15:00:29;12.18;;;5.60;;
75139;SDS011;63714;55.812;37.658;2023-04-03T15:02:54;11.27;;;5.95;;
75139;SDS011;63714;55.812;37.658;2023-04-03T15:05:20;11.88;;;6.35;;
75139;SDS011;63714;55.812;37.658;2023-04-03T15:07:53;11.15;;;6.15;;
75139;SDS011;63714;55.812;37.658;2023-04-03T15:10:22;11.25;;;5.97;;
75139;SDS011;63714;55.812;37.658;2023-04-03T15:12:49;9.70;;;6.20;;
75139;SDS011;63714;55.812;37.658;2023-04-03T15:15:16;11.73;;;6.30;;
75139;SDS011;63714;55.812;37.658;2023-04-03T15:17:45;11.05;;;5.97;;
75139;SDS011;63714;55.812;37.658;2023-04-03T15:20:17;11.88;;;6.68;;
75139;SDS011;63714;55.812;37.658;2023-04-03T15:22:44;9.65;;;6.47;;
75139;SDS011;63714;55.812;37.658;2023-04-03T15:25:10;11.52;;;7.03;;
75139;SDS011;63714;55.812;37.658;2023-04-03T15:27:38;12.98;;;6.95;;
75139;SDS011;63714;55.812;37.658;2023-04-03T15:30:05;11.73;;;7.90;;
75139;SDS011;63714;55.812;37.658;2023-04-03T15:32:33;14.55;;;7.10;;
75139;SDS011;63714;55.812;37.658;2023-04-03T15:35:00;12.40;;;7.57;;
75139;SDS011;63714;55.812;37.658;2023-04-03T15:37:27;17.42;;;8.35;;
75139;SDS011;63714;55.812;37.658;2023-04-03T15:39:52;11.05;;;7.43;;
75139;SDS011;63714;55.812;37.658;2023-04-03T15:42:18;17.50;;;12.35;;
75139;SDS011;63714;55.812;37.658;2023-04-03T15:44:43;15.80;;;8.90;;
75139;SDS011;63714;55.812;37.658;2023-04-03T15:47:09;14.30;;;8.02;;
75139;SDS011;63714;55.812;37.658;2023-04-03T15:49:35;16.23;;;6.95;;
75139;SDS011;63714;55.812;37.658;2023-04-03T15:52:00;11.57;;;6.05;;
75139;SDS011;63714;55.812;37.658;2023-04-03T15:54:26;12.15;;;6.25;;
75139;SDS011;63714;55.812;37.658;2023-04-03T15:59:20;9.25;;;5.93;;
75139;SDS011;63714;55.812;37.658;2023-04-03T16:01:45;12.93;;;7.55;;
75139;SDS011;63714;55.812;37.658;2023-04-03T16:04:11;12.07;;;7.32;;
75139;SDS011;63714;55.812;37.658;2023-04-03T16:06:37;9.50;;;6.40;;
75139;SDS011;63714;55.812;37.658;2023-04-03T16:09:03;14.68;;;6.88;;
75139;SDS011;63714;55.812;37.658;2023-04-03T16:11:29;10.55;;;7.35;;
75139;SDS011;63714;55.812;37.658;2023-04-03T16:13:55;13.18;;;7.72;;
75139;SDS011;63714;55.812;37.658;2023-04-03T16:16:21;13.50;;;7.47;;
75139;SDS011;63714;55.812;37.658;2023-04-03T16:18:48;16.05;;;7.47;;
75139;SDS011;63714;55.812;37.658;2023-04-03T16:21:14;14.88;;;6.72;;
75139;SDS011;63714;55.812;37.658;2023-04-03T16:23:41;15.40;;;6.75;;
75139;SDS011;63714;55.812;37.658;2023-04-03T16:26:07;10.63;;;6.35;;